createdAt,value
2022-10-29T00:01:31.337Z,97762.16
2022-10-29T00:05:34.108Z,97742.84
2022-10-29T00:09:35.656Z,97735.28
2022-10-29T00:13:35.854Z,97749.81
2022-10-29T00:17:37.520Z,97752.69
2022-10-29T00:21:40.619Z,97758.31
2022-10-29T00:25:40.734Z,97756.41
2022-10-29T00:29:40.877Z,97738.94
2022-10-29T00:33:41.021Z,97729.25
2022-10-29T00:37:43.692Z,97745.91
2022-10-29T00:41:44.471Z,97741.66
2022-10-29T00:45:52.353Z,97742.16
2022-10-29T00:49:58.898Z,97747.47
2022-10-29T00:54:06.944Z,97744.25
2022-10-29T00:58:07.688Z,97746.38
2022-10-29T01:02:08.135Z,97744.75
2022-10-29T01:06:10.124Z,97749.56
2022-10-29T01:10:15.342Z,97751.72
2022-10-29T01:14:33.168Z,97744.25
2022-10-29T01:18:45.246Z,97746.38
2022-10-29T01:22:53.466Z,97738.81
2022-10-29T01:27:42.769Z,97717.25
2022-10-29T01:31:50.738Z,97746.28
2022-10-29T01:36:00.620Z,97733.59
2022-10-29T01:40:09.215Z,97679.91
2022-10-29T01:44:20.151Z,97735.97
2022-10-29T01:48:33.120Z,97732.69
2022-10-29T01:52:38.214Z,97725.03
2022-10-29T01:56:38.386Z,97707.03
2022-10-29T02:00:52.122Z,97712.72
2022-10-29T02:05:17.482Z,97709.19
2022-10-29T02:09:30.336Z,97710.84
2022-10-29T02:13:38.868Z,97707.31
2022-10-29T02:17:40.213Z,97652.94
2022-10-29T02:21:44.473Z,97706.78
2022-10-29T02:25:44.654Z,97699.53
2022-10-29T02:29:44.816Z,97702.09
2022-10-29T02:33:44.999Z,97701.91
2022-10-29T02:37:47.657Z,97702.91
2022-10-29T02:41:47.699Z,97697.50
2022-10-29T02:45:47.915Z,97706.66
2022-10-29T02:49:48.014Z,97706.31
2022-10-29T02:53:50.735Z,97694.81
2022-10-29T02:57:50.829Z,97691.53
2022-10-29T03:01:51.184Z,97701.97
2022-10-29T03:05:51.434Z,97685.78
2022-10-29T03:09:54.093Z,97683.31
2022-10-29T03:13:54.191Z,97685.78
2022-10-29T03:17:54.724Z,97686.53
2022-10-29T03:21:55.187Z,97653.59
2022-10-29T03:25:59.095Z,97685.47
2022-10-29T03:29:59.281Z,97596.81
2022-10-29T03:33:59.426Z,97694.53
2022-10-29T03:37:59.511Z,97674.13
2022-10-29T03:42:04.127Z,97690.81
2022-10-29T03:46:04.215Z,97680.66
2022-10-29T03:50:04.745Z,97676.81
2022-10-29T03:54:05.332Z,97698.16
2022-10-29T03:58:08.081Z,97697.44
2022-10-29T04:02:08.356Z,97690.78
2022-10-29T04:06:14.478Z,97688.72
2022-10-29T04:10:14.847Z,97682.69
2022-10-29T04:14:17.604Z,97691.28
2022-10-29T04:18:17.795Z,97709.75
2022-10-29T04:31:00.866Z,97692.56
2022-10-29T04:35:00.919Z,97715.56
2022-10-29T04:39:01.116Z,97727.41
2022-10-29T04:43:01.512Z,97728.69
2022-10-29T04:47:04.113Z,97730.69
2022-10-29T04:51:04.505Z,97732.25
2022-10-29T04:55:04.558Z,97725.16
2022-10-29T04:59:04.720Z,97732.50
2022-10-29T05:03:07.622Z,97739.16
2022-10-29T05:07:07.686Z,97733.97
2022-10-29T05:11:09.220Z,97734.94
2022-10-29T05:15:10.618Z,97733.38
2022-10-29T05:19:13.484Z,97731.81
2022-10-29T05:23:15.071Z,97723.91
2022-10-29T05:27:15.284Z,97725.03
2022-10-29T05:31:15.447Z,97724.97
2022-10-29T05:35:18.360Z,97711.66
2022-10-29T05:39:18.840Z,97720.00
2022-10-29T05:43:20.484Z,97714.59
2022-10-29T05:47:21.118Z,97723.75
2022-10-29T05:51:24.092Z,97722.78
2022-10-29T05:55:24.227Z,97736.75
2022-10-29T05:59:25.381Z,97737.06
2022-10-29T06:03:27.696Z,97727.75
2022-10-29T06:07:30.384Z,97740.84
2022-10-29T06:11:30.496Z,97738.50
2022-10-29T06:15:30.690Z,97744.16
2022-10-29T06:19:30.793Z,97743.72
2022-10-29T06:23:33.824Z,97750.84
2022-10-29T06:27:33.917Z,97752.56
2022-10-29T06:31:34.143Z,97740.22
2022-10-29T06:39:37.801Z,97754.84
2022-10-29T06:43:38.358Z,97754.59
2022-10-29T06:47:42.895Z,97729.00
2022-10-29T06:51:42.993Z,97752.34
2022-10-29T06:55:45.766Z,97755.50
2022-10-29T06:59:45.894Z,97759.34
2022-10-29T07:03:45.994Z,97751.81
2022-10-29T07:07:46.146Z,97742.72
2022-10-29T07:11:48.894Z,97747.66
2022-10-29T07:15:49.237Z,97757.34
2022-10-29T07:19:49.284Z,97760.06
2022-10-29T07:23:49.431Z,97758.16
2022-10-29T07:27:52.672Z,97759.50
2022-10-29T07:31:52.870Z,97703.84
2022-10-29T07:35:52.971Z,97751.16
2022-10-29T07:39:53.066Z,97751.47
2022-10-29T07:43:55.852Z,97757.09
2022-10-29T07:48:03.377Z,97752.47
2022-10-29T07:52:03.587Z,97771.78
2022-10-29T07:56:03.696Z,97758.84
2022-10-29T08:00:07.232Z,97733.78
2022-10-29T08:04:12.160Z,97730.88
2022-10-29T08:08:12.253Z,97735.69
2022-10-29T08:12:14.135Z,97762.31
2022-10-29T08:16:16.886Z,97762.81
2022-10-29T08:20:17.823Z,97767.31
2022-10-29T08:24:18.931Z,97741.41
2022-10-29T08:28:20.885Z,97766.91
2022-10-29T08:32:24.573Z,97769.25
2022-10-29T08:36:24.815Z,97763.03
2022-10-29T08:40:33.484Z,97750.88
2022-10-29T08:45:21.508Z,97762.81
2022-10-29T08:49:30.068Z,97761.16
2022-10-29T08:53:41.336Z,97769.69
2022-10-29T08:57:46.781Z,97754.50
2022-10-29T09:01:47.371Z,97739.13
2022-10-29T09:06:03.487Z,97743.31
2022-10-29T09:10:14.051Z,97739.19
2022-10-29T09:14:51.802Z,97730.22
2022-10-29T09:19:19.628Z,97749.75
2022-10-29T09:23:37.492Z,97742.84
2022-10-29T09:27:56.400Z,97751.28
2022-10-29T09:32:03.405Z,97747.50
2022-10-29T09:36:04.799Z,97732.66
2022-10-29T09:40:16.210Z,97744.78
2022-10-29T09:44:25.794Z,97748.56
2022-10-29T09:48:35.652Z,97741.31
2022-10-29T09:52:39.657Z,97747.03
2022-10-29T09:56:45.987Z,97739.63
2022-10-29T10:00:46.056Z,97722.50
2022-10-29T10:04:51.212Z,97743.84
2022-10-29T10:09:06.146Z,97731.97
2022-10-29T10:13:17.715Z,97737.63
2022-10-29T10:17:19.723Z,97731.94
2022-10-29T10:21:30.531Z,97722.56
2022-10-29T10:25:42.902Z,97720.16
2022-10-29T10:29:45.715Z,97716.41
2022-10-29T10:33:56.056Z,97708.75
2022-10-29T10:37:57.463Z,97681.09
2022-10-29T10:42:01.081Z,97695.66
2022-10-29T10:46:16.495Z,97693.06
2022-10-29T10:50:24.519Z,97650.66
2022-10-29T10:54:34.059Z,97692.13
2022-10-29T10:58:44.366Z,97690.34
2022-10-29T11:02:57.360Z,97671.25
2022-10-29T11:07:05.297Z,97662.88
2022-10-29T11:11:13.219Z,97675.72
2022-10-29T11:15:19.760Z,97668.31
2022-10-29T11:19:34.143Z,97663.97
2022-10-29T11:23:51.563Z,97643.34
2022-10-29T11:28:01.690Z,97659.81
2022-10-29T11:32:11.824Z,97659.84
2022-10-29T11:36:23.308Z,97656.47
2022-10-29T11:40:33.398Z,97656.53
2022-10-29T11:44:41.825Z,97647.03
2022-10-29T11:49:02.051Z,97652.19
2022-10-29T11:53:23.975Z,97591.44
2022-10-29T11:57:36.864Z,97637.63
2022-10-29T12:01:47.418Z,97633.34
2022-10-29T12:05:58.989Z,97631.31
2022-10-29T12:10:41.446Z,97624.31
2022-10-29T12:14:50.239Z,97611.88
2022-10-29T12:19:02.053Z,97591.81
2022-10-29T12:23:15.101Z,97606.13
2022-10-29T12:27:32.820Z,97596.72
2022-10-29T12:31:42.555Z,97563.03
2022-10-29T12:35:50.700Z,97588.59
2022-10-29T12:39:58.412Z,97582.63
2022-10-29T12:44:12.538Z,97555.31
2022-10-29T12:48:20.855Z,97579.53
2022-10-29T12:52:32.811Z,97571.97
2022-10-29T12:56:33.868Z,97558.53
2022-10-29T13:00:50.328Z,97560.84
2022-10-29T13:05:20.567Z,97558.44
2022-10-29T13:09:24.443Z,97554.69
2022-10-29T13:13:45.036Z,97543.50
2022-10-29T13:17:54.218Z,97548.38
2022-10-29T13:22:04.800Z,97535.34
2022-10-29T13:26:06.384Z,97534.91
2022-10-29T13:30:23.957Z,97537.53
2022-10-29T13:34:58.712Z,97519.34
2022-10-29T13:39:07.930Z,97519.06
2022-10-29T13:43:20.059Z,97483.03
2022-10-29T13:47:24.465Z,97529.81
2022-10-29T13:51:38.174Z,97531.66
2022-10-29T13:55:44.491Z,97525.50
2022-10-29T13:59:50.229Z,97530.69
2022-10-29T14:04:03.991Z,97530.81
2022-10-29T14:08:16.450Z,97529.22
2022-10-29T14:12:25.281Z,97524.13
2022-10-29T14:16:32.859Z,97514.75
2022-10-29T14:20:33.027Z,97518.16
2022-10-29T14:24:41.039Z,97515.44
2022-10-29T14:28:41.173Z,97516.25
2022-10-29T14:32:45.443Z,97508.25
2022-10-29T14:36:50.131Z,97496.50
2022-10-29T14:40:52.977Z,97512.59
2022-10-29T14:44:58.448Z,97521.38
2022-10-29T14:49:06.353Z,97515.44
2022-10-29T14:53:25.383Z,97514.41
2022-10-29T14:57:35.319Z,97514.81
2022-10-29T15:01:35.532Z,97519.31
2022-10-29T15:05:38.948Z,97508.63
2022-10-29T15:09:39.149Z,97517.00
2022-10-29T15:13:41.921Z,97493.34
2022-10-29T15:17:53.829Z,97507.84
2022-10-29T15:21:54.311Z,97509.03
2022-10-29T15:26:00.987Z,97510.84
2022-10-29T15:30:03.924Z,97485.88
2022-10-29T15:34:12.880Z,97487.47
2022-10-29T15:38:55.337Z,97505.56
2022-10-29T15:42:57.128Z,97504.59
2022-10-29T15:47:02.584Z,97502.66
2022-10-29T15:51:03.334Z,97508.09
2022-10-29T15:55:05.564Z,97505.19
2022-10-29T15:59:05.679Z,97486.34
2022-10-29T16:03:18.394Z,97504.75
2022-10-29T16:07:20.594Z,97508.66
2022-10-29T16:11:23.540Z,97510.78
2022-10-29T16:15:25.022Z,97519.69
2022-10-29T16:19:27.727Z,97523.38
2022-10-29T16:23:27.993Z,97523.03
2022-10-29T16:27:28.373Z,97525.00
2022-10-29T16:31:31.328Z,97530.00
2022-10-29T16:35:34.350Z,97502.94
2022-10-29T16:39:34.452Z,97496.41
2022-10-29T16:43:34.581Z,97514.44
2022-10-29T16:47:34.762Z,97522.56
2022-10-29T16:51:37.484Z,97520.22
2022-10-29T16:55:41.043Z,97512.91
2022-10-29T16:59:41.218Z,97509.47
2022-10-29T17:03:42.539Z,97517.38
2022-10-29T17:07:45.821Z,97530.50
2022-10-29T17:11:46.416Z,97523.50
2022-10-29T17:15:46.655Z,97533.19
2022-10-29T17:19:46.730Z,97530.00
2022-10-29T17:23:49.400Z,97529.69
2022-10-29T17:27:49.482Z,97542.91
2022-10-29T17:31:49.944Z,97548.94
2022-10-29T17:35:50.302Z,97545.34
2022-10-29T17:39:52.938Z,97553.94
2022-10-29T17:43:53.079Z,97568.38
2022-10-29T17:47:58.127Z,97559.13
2022-10-29T17:51:58.509Z,97563.97
2022-10-29T17:56:03.905Z,97558.38
2022-10-29T18:00:04.393Z,97562.13
2022-10-29T18:04:05.377Z,97561.97
2022-10-29T18:08:05.508Z,97562.09
2022-10-29T18:12:08.712Z,97558.09
2022-10-29T18:16:10.569Z,97534.56
2022-10-29T18:20:12.199Z,97556.38
2022-10-29T18:24:13.306Z,97560.44
2022-10-29T18:28:16.110Z,97559.56
2022-10-29T18:32:16.258Z,97514.13
2022-10-29T18:36:16.411Z,97539.28
2022-10-29T18:40:16.698Z,97565.34
2022-10-29T18:44:19.464Z,97562.09
2022-10-29T18:48:19.659Z,97554.66
2022-10-29T18:52:20.226Z,97555.81
2022-10-29T18:56:23.259Z,97556.75
2022-10-29T19:00:26.028Z,97558.53
2022-10-29T19:04:26.400Z,97554.78
2022-10-29T19:08:26.595Z,97526.69
2022-10-29T19:12:26.818Z,97555.13
2022-10-29T19:16:31.929Z,97539.84
2022-10-29T19:20:33.275Z,97569.00
2022-10-29T19:24:33.407Z,97543.34
2022-10-29T19:28:33.921Z,97540.63
2022-10-29T19:32:36.703Z,97559.66
2022-10-29T19:36:40.365Z,97533.56
2022-10-29T19:40:40.657Z,97543.91
2022-10-29T19:44:40.807Z,97571.31
2022-10-29T19:48:44.035Z,97559.09
2022-10-29T19:52:44.246Z,97568.28
2022-10-29T19:56:44.431Z,97534.84
2022-10-29T20:00:44.582Z,97567.84
2022-10-29T20:04:47.329Z,97572.59
2022-10-29T20:08:47.540Z,97558.94
2022-10-29T20:12:48.041Z,97550.91
2022-10-29T20:16:48.117Z,97550.66
2022-10-29T20:20:57.649Z,97558.00
2022-10-29T20:24:57.797Z,97553.72
2022-10-29T20:28:58.519Z,97565.72
2022-10-29T20:32:59.550Z,97552.53
2022-10-29T20:37:02.492Z,97564.69
2022-10-29T20:41:02.659Z,97564.41
2022-10-29T20:45:05.754Z,97567.38
2022-10-29T20:49:06.248Z,97567.06
2022-10-29T20:57:29.088Z,97568.91
2022-10-29T21:01:29.426Z,97543.16
2022-10-29T21:05:29.623Z,97573.75
2022-10-29T21:09:32.347Z,97575.94
2022-10-29T21:13:33.157Z,97553.63
2022-10-29T21:17:33.307Z,97571.28
2022-10-29T21:21:33.557Z,97553.06
2022-10-29T21:25:36.236Z,97560.88
2022-10-29T21:29:36.484Z,97563.47
2022-10-29T21:33:36.796Z,97552.75
2022-10-29T21:37:36.887Z,97544.47
2022-10-29T21:41:40.107Z,97553.38
2022-10-29T21:45:40.234Z,97550.75
2022-10-29T21:49:40.473Z,97559.88
2022-10-29T21:53:40.999Z,97567.94
2022-10-29T21:57:46.132Z,97563.09
2022-10-29T22:01:46.373Z,97550.22
2022-10-29T22:05:46.600Z,97549.09
2022-10-29T22:09:46.651Z,97557.16
2022-10-29T22:13:49.408Z,97556.94
2022-10-29T22:17:49.995Z,97544.31
2022-10-29T22:21:50.077Z,97545.91
2022-10-29T22:25:53.735Z,97541.09
2022-10-29T22:29:56.390Z,97550.25
2022-10-29T22:33:56.721Z,97529.03
2022-10-29T22:42:16.820Z,97542.78
2022-10-29T22:46:21.623Z,97548.16
2022-10-29T22:50:21.961Z,97527.22
2022-10-29T22:54:22.094Z,97536.91
2022-10-29T22:58:22.242Z,97515.91
2022-10-29T23:02:24.988Z,97533.94
2022-10-29T23:06:27.251Z,97530.44
2022-10-29T23:10:27.349Z,97536.88
2022-10-29T23:14:27.496Z,97528.56
2022-10-29T23:18:30.171Z,97521.03
2022-10-29T23:22:30.392Z,97529.91
2022-10-29T23:26:30.811Z,97520.78
2022-10-29T23:30:30.932Z,97526.41
2022-10-29T23:34:33.638Z,97525.06
2022-10-29T23:38:33.832Z,97537.38
2022-10-29T23:42:34.037Z,97527.69
2022-10-29T23:46:34.118Z,97529.31
2022-10-29T23:50:36.846Z,97527.69
2022-10-29T23:54:36.997Z,97525.53
2022-10-29T23:58:37.090Z,97487.97
